sensor_id;sensor_type;location;lat;lon;timestamp;P1;durP1;ratioP1;P2;durP2;ratioP2
56419;SDS011;42323;52.170;7.538;2022-12-22T00:02:00;14.13;;;8.38;;
56419;SDS011;42323;52.170;7.538;2022-12-22T00:04:51;13.25;;;7.80;;
56419;SDS011;42323;52.170;7.538;2022-12-22T00:07:36;19.08;;;9.48;;
56419;SDS011;42323;52.170;7.538;2022-12-22T00:10:21;18.13;;;8.98;;
56419;SDS011;42323;52.170;7.538;2022-12-22T00:13:08;16.40;;;9.43;;
56419;SDS011;42323;52.170;7.538;2022-12-22T00:15:57;18.75;;;9.55;;
56419;SDS011;42323;52.170;7.538;2022-12-22T00:18:42;18.47;;;10.13;;
56419;SDS011;42323;52.170;7.538;2022-12-22T00:21:28;18.50;;;9.85;;
56419;SDS011;42323;52.170;7.538;2022-12-22T00:24:14;22.33;;;10.82;;
56419;SDS011;42323;52.170;7.538;2022-12-22T00:27:00;18.75;;;9.40;;
56419;SDS011;42323;52.170;7.538;2022-12-22T00:29:45;23.33;;;11.00;;
56419;SDS011;42323;52.170;7.538;2022-12-22T00:32:31;23.17;;;10.73;;
56419;SDS011;42323;52.170;7.538;2022-12-22T00:35:21;20.88;;;10.93;;
56419;SDS011;42323;52.170;7.538;2022-12-22T00:38:13;20.45;;;10.57;;
56419;SDS011;42323;52.170;7.538;2022-12-22T00:41:00;20.70;;;10.23;;
56419;SDS011;42323;52.170;7.538;2022-12-22T00:43:46;19.42;;;10.10;;
56419;SDS011;42323;52.170;7.538;2022-12-22T00:46:32;23.02;;;11.05;;
56419;SDS011;42323;52.170;7.538;2022-12-22T00:49:19;17.73;;;9.15;;
56419;SDS011;42323;52.170;7.538;2022-12-22T00:52:06;20.67;;;9.70;;
56419;SDS011;42323;52.170;7.538;2022-12-22T00:54:52;21.38;;;11.35;;
56419;SDS011;42323;52.170;7.538;2022-12-22T01:00:25;19.27;;;9.60;;
56419;SDS011;42323;52.170;7.538;2022-12-22T01:03:11;21.20;;;10.88;;
56419;SDS011;42323;52.170;7.538;2022-12-22T01:05:57;18.52;;;9.48;;
56419;SDS011;42323;52.170;7.538;2022-12-22T01:08:44;16.98;;;9.07;;
56419;SDS011;42323;52.170;7.538;2022-12-22T01:11:32;19.55;;;9.65;;
56419;SDS011;42323;52.170;7.538;2022-12-22T01:14:19;19.63;;;10.43;;
56419;SDS011;42323;52.170;7.538;2022-12-22T01:17:04;18.23;;;9.07;;
56419;SDS011;42323;52.170;7.538;2022-12-22T01:19:50;17.47;;;10.80;;
56419;SDS011;42323;52.170;7.538;2022-12-22T01:22:35;19.60;;;9.15;;
56419;SDS011;42323;52.170;7.538;2022-12-22T01:25:20;17.52;;;8.65;;
56419;SDS011;42323;52.170;7.538;2022-12-22T01:28:08;19.50;;;10.48;;
56419;SDS011;42323;52.170;7.538;2022-12-22T01:31:14;18.92;;;10.50;;
56419;SDS011;42323;52.170;7.538;2022-12-22T01:34:01;19.85;;;9.88;;
56419;SDS011;42323;52.170;7.538;2022-12-22T01:36:47;20.07;;;10.77;;
56419;SDS011;42323;52.170;7.538;2022-12-22T01:39:32;20.63;;;10.50;;
56419;SDS011;42323;52.170;7.538;2022-12-22T01:42:18;19.92;;;10.48;;
56419;SDS011;42323;52.170;7.538;2022-12-22T01:45:17;20.02;;;10.18;;
56419;SDS011;42323;52.170;7.538;2022-12-22T01:48:12;23.42;;;11.18;;
56419;SDS011;42323;52.170;7.538;2022-12-22T01:51:01;19.42;;;9.77;;
56419;SDS011;42323;52.170;7.538;2022-12-22T01:53:49;20.30;;;10.55;;
56419;SDS011;42323;52.170;7.538;2022-12-22T01:56:34;26.10;;;10.97;;
56419;SDS011;42323;52.170;7.538;2022-12-22T01:59:20;22.38;;;10.40;;
56419;SDS011;42323;52.170;7.538;2022-12-22T02:02:06;20.05;;;10.95;;
56419;SDS011;42323;52.170;7.538;2022-12-22T02:04:53;18.10;;;9.80;;
56419;SDS011;42323;52.170;7.538;2022-12-22T02:08:03;22.35;;;11.55;;
56419;SDS011;42323;52.170;7.538;2022-12-22T02:14:38;20.27;;;10.98;;
56419;SDS011;42323;52.170;7.538;2022-12-22T02:17:33;17.85;;;9.10;;
56419;SDS011;42323;52.170;7.538;2022-12-22T02:27:07;20.67;;;10.57;;
56419;SDS011;42323;52.170;7.538;2022-12-22T02:29:55;16.92;;;9.20;;
56419;SDS011;42323;52.170;7.538;2022-12-22T02:32:43;22.15;;;10.80;;
56419;SDS011;42323;52.170;7.538;2022-12-22T02:35:45;20.77;;;10.75;;
56419;SDS011;42323;52.170;7.538;2022-12-22T02:48:08;21.30;;;10.43;;
56419;SDS011;42323;52.170;7.538;2022-12-22T02:51:18;20.00;;;9.55;;
56419;SDS011;42323;52.170;7.538;2022-12-22T02:54:08;19.92;;;10.30;;
56419;SDS011;42323;52.170;7.538;2022-12-22T02:56:54;21.35;;;11.10;;
56419;SDS011;42323;52.170;7.538;2022-12-22T02:59:40;23.50;;;10.65;;
56419;SDS011;42323;52.170;7.538;2022-12-22T03:02:25;20.33;;;9.90;;
56419;SDS011;42323;52.170;7.538;2022-12-22T03:05:11;20.25;;;10.02;;
56419;SDS011;42323;52.170;7.538;2022-12-22T03:07:57;20.48;;;10.63;;
56419;SDS011;42323;52.170;7.538;2022-12-22T03:10:42;19.02;;;10.48;;
56419;SDS011;42323;52.170;7.538;2022-12-22T03:13:27;21.85;;;10.40;;
56419;SDS011;42323;52.170;7.538;2022-12-22T03:16:13;25.77;;;12.27;;
56419;SDS011;42323;52.170;7.538;2022-12-22T03:18:58;27.55;;;11.63;;
56419;SDS011;42323;52.170;7.538;2022-12-22T03:21:43;25.70;;;12.50;;
56419;SDS011;42323;52.170;7.538;2022-12-22T03:24:29;27.48;;;12.48;;
56419;SDS011;42323;52.170;7.538;2022-12-22T03:27:14;25.90;;;11.25;;
56419;SDS011;42323;52.170;7.538;2022-12-22T03:29:41;26.13;;;11.57;;
56419;SDS011;42323;52.170;7.538;2022-12-22T03:32:07;23.27;;;10.55;;
56419;SDS011;42323;52.170;7.538;2022-12-22T03:34:34;25.38;;;11.23;;
56419;SDS011;42323;52.170;7.538;2022-12-22T03:37:01;21.10;;;9.18;;
56419;SDS011;42323;52.170;7.538;2022-12-22T03:39:28;27.60;;;11.80;;
56419;SDS011;42323;52.170;7.538;2022-12-22T03:41:54;24.20;;;11.30;;
56419;SDS011;42323;52.170;7.538;2022-12-22T03:44:40;21.05;;;9.70;;
56419;SDS011;42323;52.170;7.538;2022-12-22T03:47:25;20.88;;;9.93;;
56419;SDS011;42323;52.170;7.538;2022-12-22T03:49:51;22.70;;;9.98;;
56419;SDS011;42323;52.170;7.538;2022-12-22T03:52:18;17.73;;;8.50;;
56419;SDS011;42323;52.170;7.538;2022-12-22T03:54:45;19.48;;;9.45;;
56419;SDS011;42323;52.170;7.538;2022-12-22T03:57:12;17.50;;;8.63;;
56419;SDS011;42323;52.170;7.538;2022-12-22T03:59:38;18.25;;;9.02;;
56419;SDS011;42323;52.170;7.538;2022-12-22T04:02:05;21.20;;;9.80;;
56419;SDS011;42323;52.170;7.538;2022-12-22T04:04:32;22.27;;;10.57;;
56419;SDS011;42323;52.170;7.538;2022-12-22T04:06:59;17.80;;;9.18;;
56419;SDS011;42323;52.170;7.538;2022-12-22T04:09:26;17.73;;;8.93;;
56419;SDS011;42323;52.170;7.538;2022-12-22T04:11:54;19.23;;;9.57;;
56419;SDS011;42323;52.170;7.538;2022-12-22T04:14:39;19.25;;;9.95;;
56419;SDS011;42323;52.170;7.538;2022-12-22T04:17:06;20.85;;;9.75;;
56419;SDS011;42323;52.170;7.538;2022-12-22T04:19:35;18.30;;;9.23;;
56419;SDS011;42323;52.170;7.538;2022-12-22T04:22:02;19.48;;;9.52;;
56419;SDS011;42323;52.170;7.538;2022-12-22T04:24:28;15.57;;;9.27;;
56419;SDS011;42323;52.170;7.538;2022-12-22T04:26:55;16.58;;;8.60;;
56419;SDS011;42323;52.170;7.538;2022-12-22T04:29:22;18.10;;;9.00;;
56419;SDS011;42323;52.170;7.538;2022-12-22T04:31:48;15.23;;;7.82;;
56419;SDS011;42323;52.170;7.538;2022-12-22T04:34:15;16.45;;;9.07;;
56419;SDS011;42323;52.170;7.538;2022-12-22T04:36:42;16.48;;;8.90;;
56419;SDS011;42323;52.170;7.538;2022-12-22T04:39:09;17.92;;;9.02;;
56419;SDS011;42323;52.170;7.538;2022-12-22T04:41:35;15.18;;;8.18;;
56419;SDS011;42323;52.170;7.538;2022-12-22T04:44:02;15.07;;;7.78;;
56419;SDS011;42323;52.170;7.538;2022-12-22T04:46:29;14.90;;;8.18;;
56419;SDS011;42323;52.170;7.538;2022-12-22T04:48:56;14.70;;;7.28;;
56419;SDS011;42323;52.170;7.538;2022-12-22T04:51:26;15.85;;;8.07;;
56419;SDS011;42323;52.170;7.538;2022-12-22T04:53:54;17.42;;;8.80;;
56419;SDS011;42323;52.170;7.538;2022-12-22T04:56:21;18.13;;;8.57;;
56419;SDS011;42323;52.170;7.538;2022-12-22T04:58:48;16.85;;;9.63;;
56419;SDS011;42323;52.170;7.538;2022-12-22T05:01:15;19.67;;;9.75;;
56419;SDS011;42323;52.170;7.538;2022-12-22T05:03:43;17.52;;;9.05;;
56419;SDS011;42323;52.170;7.538;2022-12-22T05:06:11;20.02;;;10.43;;
56419;SDS011;42323;52.170;7.538;2022-12-22T05:08:37;20.23;;;10.48;;
56419;SDS011;42323;52.170;7.538;2022-12-22T05:11:04;20.55;;;10.13;;
56419;SDS011;42323;52.170;7.538;2022-12-22T05:13:32;19.08;;;10.23;;
56419;SDS011;42323;52.170;7.538;2022-12-22T05:16:05;21.42;;;10.48;;
56419;SDS011;42323;52.170;7.538;2022-12-22T05:18:35;18.08;;;10.07;;
56419;SDS011;42323;52.170;7.538;2022-12-22T05:21:03;21.17;;;10.27;;
56419;SDS011;42323;52.170;7.538;2022-12-22T05:23:32;15.85;;;8.90;;
56419;SDS011;42323;52.170;7.538;2022-12-22T05:25:59;18.02;;;9.60;;
56419;SDS011;42323;52.170;7.538;2022-12-22T05:28:26;18.98;;;9.95;;
56419;SDS011;42323;52.170;7.538;2022-12-22T05:30:53;24.35;;;10.40;;
56419;SDS011;42323;52.170;7.538;2022-12-22T05:33:20;18.65;;;9.57;;
56419;SDS011;42323;52.170;7.538;2022-12-22T05:35:47;18.00;;;9.57;;
56419;SDS011;42323;52.170;7.538;2022-12-22T05:38:14;18.23;;;8.65;;
56419;SDS011;42323;52.170;7.538;2022-12-22T05:40:40;19.75;;;9.55;;
56419;SDS011;42323;52.170;7.538;2022-12-22T05:43:07;18.70;;;9.90;;
56419;SDS011;42323;52.170;7.538;2022-12-22T05:45:35;17.70;;;9.68;;
56419;SDS011;42323;52.170;7.538;2022-12-22T05:48:02;17.10;;;8.93;;
56419;SDS011;42323;52.170;7.538;2022-12-22T05:50:29;18.92;;;8.95;;
56419;SDS011;42323;52.170;7.538;2022-12-22T05:52:57;16.05;;;9.30;;
56419;SDS011;42323;52.170;7.538;2022-12-22T05:55:24;17.23;;;9.32;;
56419;SDS011;42323;52.170;7.538;2022-12-22T05:57:51;18.35;;;9.65;;
56419;SDS011;42323;52.170;7.538;2022-12-22T06:00:18;18.23;;;9.77;;
56419;SDS011;42323;52.170;7.538;2022-12-22T06:02:45;14.57;;;7.70;;
56419;SDS011;42323;52.170;7.538;2022-12-22T06:05:12;13.82;;;7.22;;
56419;SDS011;42323;52.170;7.538;2022-12-22T06:07:40;16.35;;;7.53;;
56419;SDS011;42323;52.170;7.538;2022-12-22T06:10:07;16.10;;;8.80;;
56419;SDS011;42323;52.170;7.538;2022-12-22T06:12:38;15.93;;;6.88;;
56419;SDS011;42323;52.170;7.538;2022-12-22T06:15:06;15.82;;;8.23;;
56419;SDS011;42323;52.170;7.538;2022-12-22T06:17:36;15.52;;;7.72;;
56419;SDS011;42323;52.170;7.538;2022-12-22T06:20:09;13.65;;;8.02;;
56419;SDS011;42323;52.170;7.538;2022-12-22T06:22:37;16.10;;;8.00;;
56419;SDS011;42323;52.170;7.538;2022-12-22T06:25:04;15.45;;;7.00;;
56419;SDS011;42323;52.170;7.538;2022-12-22T06:27:31;15.48;;;7.55;;
56419;SDS011;42323;52.170;7.538;2022-12-22T06:29:57;15.32;;;8.23;;
56419;SDS011;42323;52.170;7.538;2022-12-22T06:32:24;14.10;;;8.13;;
56419;SDS011;42323;52.170;7.538;2022-12-22T06:34:51;18.25;;;7.80;;
56419;SDS011;42323;52.170;7.538;2022-12-22T06:37:18;12.57;;;6.30;;
56419;SDS011;42323;52.170;7.538;2022-12-22T06:39:44;10.02;;;5.90;;
56419;SDS011;42323;52.170;7.538;2022-12-22T06:42:11;10.63;;;5.40;;
56419;SDS011;42323;52.170;7.538;2022-12-22T06:44:56;10.98;;;5.60;;
56419;SDS011;42323;52.170;7.538;2022-12-22T06:47:23;10.43;;;5.05;;
56419;SDS011;42323;52.170;7.538;2022-12-22T06:49:50;12.93;;;6.63;;
56419;SDS011;42323;52.170;7.538;2022-12-22T06:52:17;10.93;;;6.07;;
56419;SDS011;42323;52.170;7.538;2022-12-22T06:54:44;15.65;;;7.10;;
56419;SDS011;42323;52.170;7.538;2022-12-22T06:57:11;11.57;;;5.85;;
56419;SDS011;42323;52.170;7.538;2022-12-22T06:59:38;14.88;;;7.65;;
56419;SDS011;42323;52.170;7.538;2022-12-22T07:02:04;16.33;;;7.60;;
56419;SDS011;42323;52.170;7.538;2022-12-22T07:04:32;12.05;;;6.38;;
56419;SDS011;42323;52.170;7.538;2022-12-22T07:06:59;17.10;;;7.90;;
56419;SDS011;42323;52.170;7.538;2022-12-22T07:09:25;17.13;;;8.55;;
56419;SDS011;42323;52.170;7.538;2022-12-22T07:11:52;23.73;;;10.60;;
56419;SDS011;42323;52.170;7.538;2022-12-22T07:14:19;22.83;;;9.25;;
56419;SDS011;42323;52.170;7.538;2022-12-22T07:16:46;21.35;;;10.43;;
56419;SDS011;42323;52.170;7.538;2022-12-22T07:19:13;26.23;;;10.07;;
56419;SDS011;42323;52.170;7.538;2022-12-22T07:21:39;19.67;;;8.93;;
56419;SDS011;42323;52.170;7.538;2022-12-22T07:24:06;17.38;;;8.57;;
56419;SDS011;42323;52.170;7.538;2022-12-22T07:26:33;18.35;;;8.07;;
56419;SDS011;42323;52.170;7.538;2022-12-22T07:29:00;16.20;;;9.07;;
56419;SDS011;42323;52.170;7.538;2022-12-22T07:31:27;18.75;;;9.63;;
56419;SDS011;42323;52.170;7.538;2022-12-22T07:33:53;19.08;;;9.55;;
56419;SDS011;42323;52.170;7.538;2022-12-22T07:36:20;22.58;;;10.93;;
56419;SDS011;42323;52.170;7.538;2022-12-22T07:38:48;30.58;;;11.63;;
56419;SDS011;42323;52.170;7.538;2022-12-22T07:41:17;23.70;;;11.40;;
56419;SDS011;42323;52.170;7.538;2022-12-22T07:44:04;26.40;;;12.10;;
56419;SDS011;42323;52.170;7.538;2022-12-22T07:46:33;24.08;;;10.82;;
56419;SDS011;42323;52.170;7.538;2022-12-22T07:49:02;23.15;;;10.32;;
56419;SDS011;42323;52.170;7.538;2022-12-22T07:51:49;20.98;;;10.23;;
56419;SDS011;42323;52.170;7.538;2022-12-22T07:54:16;19.35;;;9.02;;
56419;SDS011;42323;52.170;7.538;2022-12-22T07:56:43;21.00;;;9.45;;
56419;SDS011;42323;52.170;7.538;2022-12-22T07:59:11;17.85;;;8.70;;
56419;SDS011;42323;52.170;7.538;2022-12-22T08:01:38;25.27;;;10.32;;
56419;SDS011;42323;52.170;7.538;2022-12-22T08:04:07;23.42;;;9.48;;
56419;SDS011;42323;52.170;7.538;2022-12-22T08:06:35;21.38;;;10.57;;
56419;SDS011;42323;52.170;7.538;2022-12-22T08:09:03;27.60;;;11.35;;
56419;SDS011;42323;52.170;7.538;2022-12-22T08:11:33;21.52;;;10.13;;
56419;SDS011;42323;52.170;7.538;2022-12-22T08:14:00;25.98;;;11.68;;
56419;SDS011;42323;52.170;7.538;2022-12-22T08:16:27;23.23;;;10.20;;
56419;SDS011;42323;52.170;7.538;2022-12-22T08:18:55;23.17;;;10.73;;
56419;SDS011;42323;52.170;7.538;2022-12-22T08:21:21;26.75;;;11.35;;
56419;SDS011;42323;52.170;7.538;2022-12-22T08:23:49;27.10;;;10.95;;
56419;SDS011;42323;52.170;7.538;2022-12-22T08:26:32;26.95;;;10.98;;
56419;SDS011;42323;52.170;7.538;2022-12-22T08:31:32;20.90;;;10.15;;
56419;SDS011;42323;52.170;7.538;2022-12-22T08:34:00;29.33;;;10.35;;
56419;SDS011;42323;52.170;7.538;2022-12-22T08:36:32;21.88;;;8.65;;
56419;SDS011;42323;52.170;7.538;2022-12-22T08:39:01;25.92;;;10.48;;
56419;SDS011;42323;52.170;7.538;2022-12-22T08:41:29;29.05;;;10.55;;
56419;SDS011;42323;52.170;7.538;2022-12-22T08:44:15;30.77;;;10.45;;
56419;SDS011;42323;52.170;7.538;2022-12-22T08:46:53;28.35;;;10.70;;
56419;SDS011;42323;52.170;7.538;2022-12-22T08:49:22;35.08;;;10.52;;
56419;SDS011;42323;52.170;7.538;2022-12-22T08:51:49;27.60;;;9.95;;
56419;SDS011;42323;52.170;7.538;2022-12-22T08:54:16;31.20;;;10.45;;
56419;SDS011;42323;52.170;7.538;2022-12-22T08:56:43;38.08;;;12.07;;
56419;SDS011;42323;52.170;7.538;2022-12-22T08:59:11;29.90;;;10.88;;
56419;SDS011;42323;52.170;7.538;2022-12-22T09:01:39;33.60;;;11.02;;
56419;SDS011;42323;52.170;7.538;2022-12-22T09:04:14;36.25;;;11.88;;
56419;SDS011;42323;52.170;7.538;2022-12-22T09:06:43;38.08;;;12.05;;
56419;SDS011;42323;52.170;7.538;2022-12-22T09:09:12;31.52;;;10.77;;
56419;SDS011;42323;52.170;7.538;2022-12-22T09:11:40;37.63;;;11.63;;
56419;SDS011;42323;52.170;7.538;2022-12-22T09:14:07;33.20;;;10.88;;
56419;SDS011;42323;52.170;7.538;2022-12-22T09:16:35;33.58;;;11.55;;
56419;SDS011;42323;52.170;7.538;2022-12-22T09:19:03;32.35;;;11.90;;
56419;SDS011;42323;52.170;7.538;2022-12-22T09:21:31;29.67;;;10.57;;
56419;SDS011;42323;52.170;7.538;2022-12-22T09:23:59;31.85;;;10.55;;
56419;SDS011;42323;52.170;7.538;2022-12-22T09:26:27;31.80;;;10.68;;
56419;SDS011;42323;52.170;7.538;2022-12-22T09:28:54;32.75;;;9.70;;
56419;SDS011;42323;52.170;7.538;2022-12-22T09:31:22;31.55;;;10.55;;
56419;SDS011;42323;52.170;7.538;2022-12-22T09:33:51;28.77;;;10.25;;
56419;SDS011;42323;52.170;7.538;2022-12-22T09:36:19;30.10;;;10.02;;
56419;SDS011;42323;52.170;7.538;2022-12-22T09:38:50;27.63;;;10.27;;
56419;SDS011;42323;52.170;7.538;2022-12-22T09:41:20;30.73;;;10.75;;
56419;SDS011;42323;52.170;7.538;2022-12-22T09:44:05;26.42;;;9.68;;
56419;SDS011;42323;52.170;7.538;2022-12-22T09:46:39;28.33;;;9.80;;
56419;SDS011;42323;52.170;7.538;2022-12-22T09:49:06;25.30;;;8.88;;
56419;SDS011;42323;52.170;7.538;2022-12-22T09:51:38;25.20;;;9.40;;
56419;SDS011;42323;52.170;7.538;2022-12-22T09:54:08;29.30;;;9.48;;
56419;SDS011;42323;52.170;7.538;2022-12-22T09:56:37;23.73;;;9.27;;
56419;SDS011;42323;52.170;7.538;2022-12-22T09:59:11;26.13;;;9.02;;
56419;SDS011;42323;52.170;7.538;2022-12-22T10:01:44;28.58;;;9.88;;
56419;SDS011;42323;52.170;7.538;2022-12-22T10:09:32;23.88;;;9.27;;
56419;SDS011;42323;52.170;7.538;2022-12-22T10:12:17;23.70;;;9.93;;
56419;SDS011;42323;52.170;7.538;2022-12-22T10:14:47;21.70;;;8.52;;
56419;SDS011;42323;52.170;7.538;2022-12-22T10:17:26;20.80;;;8.50;;
56419;SDS011;42323;52.170;7.538;2022-12-22T10:22:55;20.85;;;8.35;;
56419;SDS011;42323;52.170;7.538;2022-12-22T10:25:26;22.67;;;8.77;;
56419;SDS011;42323;52.170;7.538;2022-12-22T10:28:24;19.40;;;8.82;;
56419;SDS011;42323;52.170;7.538;2022-12-22T10:31:11;18.40;;;8.02;;
56419;SDS011;42323;52.170;7.538;2022-12-22T10:33:42;18.92;;;8.27;;
56419;SDS011;42323;52.170;7.538;2022-12-22T10:36:13;19.35;;;8.90;;
56419;SDS011;42323;52.170;7.538;2022-12-22T10:41:28;20.38;;;8.32;;
56419;SDS011;42323;52.170;7.538;2022-12-22T10:44:01;18.45;;;7.47;;
56419;SDS011;42323;52.170;7.538;2022-12-22T10:46:33;19.80;;;8.85;;
56419;SDS011;42323;52.170;7.538;2022-12-22T10:49:11;15.48;;;7.18;;
56419;SDS011;42323;52.170;7.538;2022-12-22T10:51:54;19.42;;;8.55;;
56419;SDS011;42323;52.170;7.538;2022-12-22T10:54:34;20.25;;;9.38;;
56419;SDS011;42323;52.170;7.538;2022-12-22T11:04:47;14.40;;;6.95;;
56419;SDS011;42323;52.170;7.538;2022-12-22T11:07:14;15.18;;;7.18;;
56419;SDS011;42323;52.170;7.538;2022-12-22T11:09:41;14.15;;;7.28;;
56419;SDS011;42323;52.170;7.538;2022-12-22T11:12:12;14.13;;;7.47;;
56419;SDS011;42323;52.170;7.538;2022-12-22T11:23:32;14.57;;;8.30;;
56419;SDS011;42323;52.170;7.538;2022-12-22T11:39:53;12.35;;;7.10;;
56419;SDS011;42323;52.170;7.538;2022-12-22T11:50:47;12.93;;;5.88;;
56419;SDS011;42323;52.170;7.538;2022-12-22T12:01:27;14.20;;;7.32;;
56419;SDS011;42323;52.170;7.538;2022-12-22T12:26:23;13.23;;;6.68;;
56419;SDS011;42323;52.170;7.538;2022-12-22T12:31:20;11.70;;;6.15;;
56419;SDS011;42323;52.170;7.538;2022-12-22T12:33:53;11.70;;;6.60;;
56419;SDS011;42323;52.170;7.538;2022-12-22T12:41:54;9.00;;;5.53;;
56419;SDS011;42323;52.170;7.538;2022-12-22T12:44:32;12.52;;;5.60;;
56419;SDS011;42323;52.170;7.538;2022-12-22T12:47:03;10.52;;;5.40;;
56419;SDS011;42323;52.170;7.538;2022-12-22T12:55:51;11.38;;;6.18;;
56419;SDS011;42323;52.170;7.538;2022-12-22T12:58:07;11.55;;;6.20;;
56419;SDS011;42323;52.170;7.538;2022-12-22T13:09:17;9.65;;;5.72;;
56419;SDS011;42323;52.170;7.538;2022-12-22T13:18:01;10.80;;;5.65;;
56419;SDS011;42323;52.170;7.538;2022-12-22T13:20:31;13.50;;;6.55;;
56419;SDS011;42323;52.170;7.538;2022-12-22T13:23:01;13.23;;;5.63;;
56419;SDS011;42323;52.170;7.538;2022-12-22T13:25:39;13.13;;;6.07;;
56419;SDS011;42323;52.170;7.538;2022-12-22T13:28:13;13.18;;;6.07;;
56419;SDS011;42323;52.170;7.538;2022-12-22T13:30:49;11.63;;;6.22;;
56419;SDS011;42323;52.170;7.538;2022-12-22T13:33:23;10.48;;;5.68;;
56419;SDS011;42323;52.170;7.538;2022-12-22T13:35:52;12.95;;;5.63;;
56419;SDS011;42323;52.170;7.538;2022-12-22T13:38:31;11.68;;;6.18;;
56419;SDS011;42323;52.170;7.538;2022-12-22T13:41:00;15.27;;;5.18;;
56419;SDS011;42323;52.170;7.538;2022-12-22T13:43:29;10.93;;;5.03;;
56419;SDS011;42323;52.170;7.538;2022-12-22T13:45:59;11.07;;;4.72;;
56419;SDS011;42323;52.170;7.538;2022-12-22T13:51:23;11.82;;;5.20;;
56419;SDS011;42323;52.170;7.538;2022-12-22T13:54:01;9.88;;;5.13;;
56419;SDS011;42323;52.170;7.538;2022-12-22T13:56:42;11.85;;;6.18;;
56419;SDS011;42323;52.170;7.538;2022-12-22T13:59:16;9.88;;;5.35;;
56419;SDS011;42323;52.170;7.538;2022-12-22T14:01:54;9.73;;;4.95;;
56419;SDS011;42323;52.170;7.538;2022-12-22T14:04:35;11.32;;;4.60;;
56419;SDS011;42323;52.170;7.538;2022-12-22T14:07:10;10.75;;;5.20;;
56419;SDS011;42323;52.170;7.538;2022-12-22T14:09:53;11.05;;;5.03;;
56419;SDS011;42323;52.170;7.538;2022-12-22T14:12:31;11.63;;;4.53;;
56419;SDS011;42323;52.170;7.538;2022-12-22T14:15:06;9.23;;;4.88;;
56419;SDS011;42323;52.170;7.538;2022-12-22T14:17:41;10.57;;;4.43;;
56419;SDS011;42323;52.170;7.538;2022-12-22T14:20:23;11.00;;;4.45;;
56419;SDS011;42323;52.170;7.538;2022-12-22T14:22:58;9.18;;;4.47;;
56419;SDS011;42323;52.170;7.538;2022-12-22T14:25:40;8.70;;;4.15;;
56419;SDS011;42323;52.170;7.538;2022-12-22T14:30:48;10.23;;;4.30;;
56419;SDS011;42323;52.170;7.538;2022-12-22T14:38:56;11.95;;;4.65;;
56419;SDS011;42323;52.170;7.538;2022-12-22T14:41:55;11.18;;;5.53;;
56419;SDS011;42323;52.170;7.538;2022-12-22T14:44:32;9.90;;;4.90;;
56419;SDS011;42323;52.170;7.538;2022-12-22T14:49:56;10.52;;;5.82;;
56419;SDS011;42323;52.170;7.538;2022-12-22T14:58:35;10.23;;;5.25;;
56419;SDS011;42323;52.170;7.538;2022-12-22T15:01:15;10.05;;;4.75;;
56419;SDS011;42323;52.170;7.538;2022-12-22T15:04:14;11.40;;;5.22;;
56419;SDS011;42323;52.170;7.538;2022-12-22T15:06:43;11.52;;;5.30;;
56419;SDS011;42323;52.170;7.538;2022-12-22T15:11:40;12.93;;;5.65;;
56419;SDS011;42323;52.170;7.538;2022-12-22T15:14:17;11.93;;;5.28;;
56419;SDS011;42323;52.170;7.538;2022-12-22T15:16:46;13.48;;;5.45;;
56419;SDS011;42323;52.170;7.538;2022-12-22T15:19:15;15.60;;;6.22;;
56419;SDS011;42323;52.170;7.538;2022-12-22T15:21:44;12.88;;;6.63;;
56419;SDS011;42323;52.170;7.538;2022-12-22T15:24:12;11.82;;;5.97;;
56419;SDS011;42323;52.170;7.538;2022-12-22T15:26:43;14.40;;;6.95;;
56419;SDS011;42323;52.170;7.538;2022-12-22T15:29:11;14.73;;;7.35;;
56419;SDS011;42323;52.170;7.538;2022-12-22T15:31:38;17.45;;;6.82;;
56419;SDS011;42323;52.170;7.538;2022-12-22T15:34:15;16.95;;;7.65;;
56419;SDS011;42323;52.170;7.538;2022-12-22T15:36:48;16.45;;;7.10;;
56419;SDS011;42323;52.170;7.538;2022-12-22T15:39:16;17.90;;;7.07;;
56419;SDS011;42323;52.170;7.538;2022-12-22T15:41:47;17.08;;;7.22;;
56419;SDS011;42323;52.170;7.538;2022-12-22T15:44:14;15.90;;;7.53;;
56419;SDS011;42323;52.170;7.538;2022-12-22T15:46:42;16.33;;;7.53;;
56419;SDS011;42323;52.170;7.538;2022-12-22T15:49:12;18.42;;;8.38;;
56419;SDS011;42323;52.170;7.538;2022-12-22T15:51:41;18.30;;;8.70;;
56419;SDS011;42323;52.170;7.538;2022-12-22T15:54:11;16.05;;;8.55;;
56419;SDS011;42323;52.170;7.538;2022-12-22T15:56:40;14.10;;;8.63;;
56419;SDS011;42323;52.170;7.538;2022-12-22T15:59:10;17.42;;;8.20;;
56419;SDS011;42323;52.170;7.538;2022-12-22T16:01:41;19.15;;;8.55;;
56419;SDS011;42323;52.170;7.538;2022-12-22T16:04:08;21.23;;;9.13;;
56419;SDS011;42323;52.170;7.538;2022-12-22T16:06:34;20.42;;;9.38;;
56419;SDS011;42323;52.170;7.538;2022-12-22T16:09:01;21.13;;;9.50;;
56419;SDS011;42323;52.170;7.538;2022-12-22T16:11:33;22.55;;;10.90;;
56419;SDS011;42323;52.170;7.538;2022-12-22T16:14:00;22.80;;;9.40;;
56419;SDS011;42323;52.170;7.538;2022-12-22T16:16:27;21.90;;;10.50;;
56419;SDS011;42323;52.170;7.538;2022-12-22T16:18:54;18.58;;;8.52;;
56419;SDS011;42323;52.170;7.538;2022-12-22T16:21:22;21.92;;;9.88;;
56419;SDS011;42323;52.170;7.538;2022-12-22T16:23:54;20.52;;;9.27;;
56419;SDS011;42323;52.170;7.538;2022-12-22T16:26:22;19.67;;;9.40;;
56419;SDS011;42323;52.170;7.538;2022-12-22T16:28:49;21.15;;;10.23;;
56419;SDS011;42323;52.170;7.538;2022-12-22T16:31:19;22.23;;;9.85;;
56419;SDS011;42323;52.170;7.538;2022-12-22T16:33:48;19.38;;;11.05;;
56419;SDS011;42323;52.170;7.538;2022-12-22T16:36:15;22.23;;;13.00;;
56419;SDS011;42323;52.170;7.538;2022-12-22T16:38:43;23.63;;;12.13;;
56419;SDS011;42323;52.170;7.538;2022-12-22T16:41:16;20.80;;;10.88;;
56419;SDS011;42323;52.170;7.538;2022-12-22T16:46:31;22.15;;;10.80;;
56419;SDS011;42323;52.170;7.538;2022-12-22T16:49:05;22.55;;;11.57;;
56419;SDS011;42323;52.170;7.538;2022-12-22T16:51:33;23.13;;;12.93;;
56419;SDS011;42323;52.170;7.538;2022-12-22T16:54:04;31.38;;;14.52;;
56419;SDS011;42323;52.170;7.538;2022-12-22T16:56:31;22.90;;;12.40;;
56419;SDS011;42323;52.170;7.538;2022-12-22T16:58:57;27.48;;;13.25;;
56419;SDS011;42323;52.170;7.538;2022-12-22T17:04:24;28.88;;;15.77;;
56419;SDS011;42323;52.170;7.538;2022-12-22T17:06:56;31.98;;;17.17;;
56419;SDS011;42323;52.170;7.538;2022-12-22T17:09:29;32.72;;;16.33;;
56419;SDS011;42323;52.170;7.538;2022-12-22T17:11:59;31.77;;;16.13;;
56419;SDS011;42323;52.170;7.538;2022-12-22T17:14:36;26.70;;;14.73;;
56419;SDS011;42323;52.170;7.538;2022-12-22T17:17:10;28.52;;;16.17;;
56419;SDS011;42323;52.170;7.538;2022-12-22T17:19:43;35.25;;;17.70;;
56419;SDS011;42323;52.170;7.538;2022-12-22T17:24:50;30.67;;;15.98;;
56419;SDS011;42323;52.170;7.538;2022-12-22T17:27:21;29.08;;;15.75;;
56419;SDS011;42323;52.170;7.538;2022-12-22T17:29:50;39.58;;;19.42;;
56419;SDS011;42323;52.170;7.538;2022-12-22T17:32:18;44.15;;;21.67;;
56419;SDS011;42323;52.170;7.538;2022-12-22T17:34:46;44.10;;;22.55;;
56419;SDS011;42323;52.170;7.538;2022-12-22T17:37:20;40.08;;;20.98;;
56419;SDS011;42323;52.170;7.538;2022-12-22T17:39:53;37.15;;;18.05;;
56419;SDS011;42323;52.170;7.538;2022-12-22T17:42:25;31.92;;;15.20;;
56419;SDS011;42323;52.170;7.538;2022-12-22T17:44:52;34.10;;;16.88;;
56419;SDS011;42323;52.170;7.538;2022-12-22T17:47:19;32.97;;;17.27;;
56419;SDS011;42323;52.170;7.538;2022-12-22T17:49:56;29.63;;;16.70;;
56419;SDS011;42323;52.170;7.538;2022-12-22T17:52:23;34.70;;;18.23;;
56419;SDS011;42323;52.170;7.538;2022-12-22T17:54:52;31.17;;;16.65;;